sensor_id;sensor_type;location;lat;lon;timestamp;P1;durP1;ratioP1;P2;durP2;ratioP2
61978;SDS011;47938;48.176;16.414;2022-12-18T00:01:14;8.63;;;4.93;;
61978;SDS011;47938;48.176;16.414;2022-12-18T00:03:44;8.52;;;5.05;;
61978;SDS011;47938;48.176;16.414;2022-12-18T00:06:10;9.68;;;4.75;;
61978;SDS011;47938;48.176;16.414;2022-12-18T00:08:36;9.32;;;5.13;;
61978;SDS011;47938;48.176;16.414;2022-12-18T00:11:05;10.88;;;5.80;;
61978;SDS011;47938;48.176;16.414;2022-12-18T00:13:32;13.10;;;5.65;;
61978;SDS011;47938;48.176;16.414;2022-12-18T00:16:02;9.95;;;5.68;;
61978;SDS011;47938;48.176;16.414;2022-12-18T00:18:30;8.18;;;5.47;;
61978;SDS011;47938;48.176;16.414;2022-12-18T00:20:58;7.93;;;4.90;;
61978;SDS011;47938;48.176;16.414;2022-12-18T00:23:25;9.35;;;3.92;;
61978;SDS011;47938;48.176;16.414;2022-12-18T00:25:51;8.52;;;5.18;;
61978;SDS011;47938;48.176;16.414;2022-12-18T00:28:17;12.02;;;5.15;;
61978;SDS011;47938;48.176;16.414;2022-12-18T00:30:42;9.85;;;4.82;;
61978;SDS011;47938;48.176;16.414;2022-12-18T00:33:08;7.38;;;3.65;;
61978;SDS011;47938;48.176;16.414;2022-12-18T00:35:34;7.65;;;5.05;;
61978;SDS011;47938;48.176;16.414;2022-12-18T00:37:59;7.63;;;5.38;;
61978;SDS011;47938;48.176;16.414;2022-12-18T00:40:25;9.35;;;5.18;;
61978;SDS011;47938;48.176;16.414;2022-12-18T00:42:50;11.45;;;5.43;;
61978;SDS011;47938;48.176;16.414;2022-12-18T00:45:16;11.05;;;6.05;;
61978;SDS011;47938;48.176;16.414;2022-12-18T00:47:42;9.68;;;5.32;;
61978;SDS011;47938;48.176;16.414;2022-12-18T00:50:08;11.25;;;6.20;;
61978;SDS011;47938;48.176;16.414;2022-12-18T00:52:34;10.13;;;6.20;;
61978;SDS011;47938;48.176;16.414;2022-12-18T00:54:59;9.25;;;5.47;;
61978;SDS011;47938;48.176;16.414;2022-12-18T00:57:25;10.70;;;6.07;;
61978;SDS011;47938;48.176;16.414;2022-12-18T00:59:50;8.63;;;5.75;;
61978;SDS011;47938;48.176;16.414;2022-12-18T01:02:16;10.23;;;5.60;;
61978;SDS011;47938;48.176;16.414;2022-12-18T01:04:41;10.00;;;5.80;;
61978;SDS011;47938;48.176;16.414;2022-12-18T01:07:07;10.10;;;6.18;;
61978;SDS011;47938;48.176;16.414;2022-12-18T01:09:33;8.65;;;5.40;;
61978;SDS011;47938;48.176;16.414;2022-12-18T01:11:58;9.82;;;6.47;;
61978;SDS011;47938;48.176;16.414;2022-12-18T01:14:24;10.57;;;6.18;;
61978;SDS011;47938;48.176;16.414;2022-12-18T01:16:49;7.55;;;4.68;;
61978;SDS011;47938;48.176;16.414;2022-12-18T01:19:15;12.57;;;7.60;;
61978;SDS011;47938;48.176;16.414;2022-12-18T01:21:41;13.40;;;7.53;;
61978;SDS011;47938;48.176;16.414;2022-12-18T01:24:06;14.57;;;8.23;;
61978;SDS011;47938;48.176;16.414;2022-12-18T01:26:32;19.20;;;7.93;;
61978;SDS011;47938;48.176;16.414;2022-12-18T01:28:57;11.73;;;7.30;;
61978;SDS011;47938;48.176;16.414;2022-12-18T01:31:24;12.05;;;6.95;;
61978;SDS011;47938;48.176;16.414;2022-12-18T01:33:52;12.52;;;8.20;;
61978;SDS011;47938;48.176;16.414;2022-12-18T01:36:19;15.57;;;8.35;;
61978;SDS011;47938;48.176;16.414;2022-12-18T01:38:47;15.65;;;8.45;;
61978;SDS011;47938;48.176;16.414;2022-12-18T01:41:14;14.02;;;8.27;;
61978;SDS011;47938;48.176;16.414;2022-12-18T01:43:48;16.42;;;9.35;;
61978;SDS011;47938;48.176;16.414;2022-12-18T01:46:20;15.38;;;8.82;;
61978;SDS011;47938;48.176;16.414;2022-12-18T01:48:52;15.93;;;9.73;;
61978;SDS011;47938;48.176;16.414;2022-12-18T01:51:21;15.98;;;9.90;;
61978;SDS011;47938;48.176;16.414;2022-12-18T01:53:47;16.38;;;10.02;;
61978;SDS011;47938;48.176;16.414;2022-12-18T01:56:14;13.27;;;8.60;;
61978;SDS011;47938;48.176;16.414;2022-12-18T01:58:54;18.60;;;10.23;;
61978;SDS011;47938;48.176;16.414;2022-12-18T02:01:27;17.33;;;9.93;;
61978;SDS011;47938;48.176;16.414;2022-12-18T02:03:54;18.10;;;9.82;;
61978;SDS011;47938;48.176;16.414;2022-12-18T02:06:28;16.75;;;10.05;;
61978;SDS011;47938;48.176;16.414;2022-12-18T02:09:02;22.20;;;10.57;;
61978;SDS011;47938;48.176;16.414;2022-12-18T02:14:07;20.13;;;11.15;;
61978;SDS011;47938;48.176;16.414;2022-12-18T02:27:52;19.60;;;10.50;;
61978;SDS011;47938;48.176;16.414;2022-12-18T02:30:21;18.10;;;10.23;;
61978;SDS011;47938;48.176;16.414;2022-12-18T02:32:51;22.13;;;11.68;;
61978;SDS011;47938;48.176;16.414;2022-12-18T02:35:24;17.85;;;11.02;;
61978;SDS011;47938;48.176;16.414;2022-12-18T02:37:53;15.25;;;9.55;;
61978;SDS011;47938;48.176;16.414;2022-12-18T02:40:20;17.10;;;10.73;;
61978;SDS011;47938;48.176;16.414;2022-12-18T02:42:48;21.40;;;11.40;;
61978;SDS011;47938;48.176;16.414;2022-12-18T02:45:14;19.90;;;11.43;;
61978;SDS011;47938;48.176;16.414;2022-12-18T02:47:41;19.35;;;10.93;;
61978;SDS011;47938;48.176;16.414;2022-12-18T02:55:53;17.80;;;10.75;;
61978;SDS011;47938;48.176;16.414;2022-12-18T03:01:03;25.08;;;12.80;;
61978;SDS011;47938;48.176;16.414;2022-12-18T03:03:55;20.48;;;10.38;;
61978;SDS011;47938;48.176;16.414;2022-12-18T03:06:32;22.88;;;11.32;;
61978;SDS011;47938;48.176;16.414;2022-12-18T03:09:02;17.63;;;10.38;;
61978;SDS011;47938;48.176;16.414;2022-12-18T03:11:33;22.38;;;11.45;;
61978;SDS011;47938;48.176;16.414;2022-12-18T03:14:02;20.17;;;11.02;;
61978;SDS011;47938;48.176;16.414;2022-12-18T03:16:30;19.02;;;11.13;;
61978;SDS011;47938;48.176;16.414;2022-12-18T03:19:31;22.15;;;11.73;;
61978;SDS011;47938;48.176;16.414;2022-12-18T03:21:53;20.70;;;12.18;;
61978;SDS011;47938;48.176;16.414;2022-12-18T03:24:21;19.88;;;11.52;;
61978;SDS011;47938;48.176;16.414;2022-12-18T03:26:49;24.13;;;12.63;;
61978;SDS011;47938;48.176;16.414;2022-12-18T03:29:22;17.88;;;10.18;;
61978;SDS011;47938;48.176;16.414;2022-12-18T03:31:55;21.17;;;11.77;;
61978;SDS011;47938;48.176;16.414;2022-12-18T03:34:28;18.83;;;10.73;;
61978;SDS011;47938;48.176;16.414;2022-12-18T03:36:57;19.00;;;11.70;;
61978;SDS011;47938;48.176;16.414;2022-12-18T03:39:23;19.00;;;11.23;;
61978;SDS011;47938;48.176;16.414;2022-12-18T03:41:51;22.60;;;12.13;;
61978;SDS011;47938;48.176;16.414;2022-12-18T03:44:27;19.77;;;10.80;;
61978;SDS011;47938;48.176;16.414;2022-12-18T03:47:11;17.58;;;9.70;;
61978;SDS011;47938;48.176;16.414;2022-12-18T03:52:46;23.08;;;11.10;;
61978;SDS011;47938;48.176;16.414;2022-12-18T03:55:30;22.40;;;12.30;;
61978;SDS011;47938;48.176;16.414;2022-12-18T03:57:58;17.90;;;10.90;;
61978;SDS011;47938;48.176;16.414;2022-12-18T04:00:26;19.50;;;11.20;;
61978;SDS011;47938;48.176;16.414;2022-12-18T04:02:54;18.33;;;9.73;;
61978;SDS011;47938;48.176;16.414;2022-12-18T04:05:22;19.42;;;11.80;;
61978;SDS011;47938;48.176;16.414;2022-12-18T04:07:49;23.13;;;12.13;;
61978;SDS011;47938;48.176;16.414;2022-12-18T04:10:16;23.13;;;12.75;;
61978;SDS011;47938;48.176;16.414;2022-12-18T04:12:42;23.92;;;12.82;;
61978;SDS011;47938;48.176;16.414;2022-12-18T04:15:08;21.55;;;12.63;;
61978;SDS011;47938;48.176;16.414;2022-12-18T04:17:35;25.10;;;12.70;;
61978;SDS011;47938;48.176;16.414;2022-12-18T04:20:01;24.20;;;13.02;;
61978;SDS011;47938;48.176;16.414;2022-12-18T04:22:27;26.42;;;12.65;;
61978;SDS011;47938;48.176;16.414;2022-12-18T04:24:53;20.63;;;12.45;;
61978;SDS011;47938;48.176;16.414;2022-12-18T04:27:19;25.48;;;11.57;;
61978;SDS011;47938;48.176;16.414;2022-12-18T04:29:44;22.60;;;13.00;;
61978;SDS011;47938;48.176;16.414;2022-12-18T04:32:10;21.48;;;12.45;;
61978;SDS011;47938;48.176;16.414;2022-12-18T04:34:36;23.52;;;13.68;;
61978;SDS011;47938;48.176;16.414;2022-12-18T04:37:01;25.73;;;13.10;;
61978;SDS011;47938;48.176;16.414;2022-12-18T04:39:27;23.30;;;12.77;;
61978;SDS011;47938;48.176;16.414;2022-12-18T04:41:53;25.77;;;13.68;;
61978;SDS011;47938;48.176;16.414;2022-12-18T04:44:18;25.92;;;14.38;;
61978;SDS011;47938;48.176;16.414;2022-12-18T04:46:44;22.65;;;13.63;;
61978;SDS011;47938;48.176;16.414;2022-12-18T04:49:09;22.23;;;12.93;;
61978;SDS011;47938;48.176;16.414;2022-12-18T04:51:35;25.65;;;13.57;;
61978;SDS011;47938;48.176;16.414;2022-12-18T04:54:01;23.67;;;13.77;;
61978;SDS011;47938;48.176;16.414;2022-12-18T04:56:27;24.73;;;12.90;;
61978;SDS011;47938;48.176;16.414;2022-12-18T04:58:52;21.88;;;12.93;;
61978;SDS011;47938;48.176;16.414;2022-12-18T05:01:18;30.15;;;14.20;;
61978;SDS011;47938;48.176;16.414;2022-12-18T05:03:44;24.15;;;13.43;;
61978;SDS011;47938;48.176;16.414;2022-12-18T05:06:10;28.15;;;15.65;;
61978;SDS011;47938;48.176;16.414;2022-12-18T05:08:35;29.02;;;14.55;;
61978;SDS011;47938;48.176;16.414;2022-12-18T05:11:05;27.27;;;15.25;;
61978;SDS011;47938;48.176;16.414;2022-12-18T05:13:32;29.60;;;14.37;;
61978;SDS011;47938;48.176;16.414;2022-12-18T05:15:59;24.00;;;13.82;;
61978;SDS011;47938;48.176;16.414;2022-12-18T05:18:25;30.75;;;14.70;;
61978;SDS011;47938;48.176;16.414;2022-12-18T05:20:51;25.70;;;14.95;;
61978;SDS011;47938;48.176;16.414;2022-12-18T05:23:17;24.55;;;14.07;;
61978;SDS011;47938;48.176;16.414;2022-12-18T05:25:46;25.02;;;14.45;;
61978;SDS011;47938;48.176;16.414;2022-12-18T05:28:16;26.45;;;14.85;;
61978;SDS011;47938;48.176;16.414;2022-12-18T05:30:41;27.67;;;13.75;;
61978;SDS011;47938;48.176;16.414;2022-12-18T05:33:07;25.98;;;14.65;;
61978;SDS011;47938;48.176;16.414;2022-12-18T05:35:32;25.83;;;14.02;;
61978;SDS011;47938;48.176;16.414;2022-12-18T05:37:58;27.75;;;14.13;;
61978;SDS011;47938;48.176;16.414;2022-12-18T05:40:24;26.25;;;15.30;;
61978;SDS011;47938;48.176;16.414;2022-12-18T05:42:49;26.42;;;14.38;;
61978;SDS011;47938;48.176;16.414;2022-12-18T05:45:15;26.13;;;13.90;;
61978;SDS011;47938;48.176;16.414;2022-12-18T05:47:40;28.73;;;15.25;;
61978;SDS011;47938;48.176;16.414;2022-12-18T05:50:06;25.70;;;13.98;;
61978;SDS011;47938;48.176;16.414;2022-12-18T05:52:32;25.08;;;14.75;;
61978;SDS011;47938;48.176;16.414;2022-12-18T05:54:58;23.58;;;13.98;;
61978;SDS011;47938;48.176;16.414;2022-12-18T05:57:23;29.52;;;15.77;;
61978;SDS011;47938;48.176;16.414;2022-12-18T05:59:49;38.38;;;16.88;;
61978;SDS011;47938;48.176;16.414;2022-12-18T06:02:14;30.02;;;16.42;;
61978;SDS011;47938;48.176;16.414;2022-12-18T06:04:40;29.58;;;16.58;;
61978;SDS011;47938;48.176;16.414;2022-12-18T06:07:06;30.38;;;16.42;;
61978;SDS011;47938;48.176;16.414;2022-12-18T06:09:31;34.17;;;17.05;;
61978;SDS011;47938;48.176;16.414;2022-12-18T06:11:57;32.50;;;15.82;;
61978;SDS011;47938;48.176;16.414;2022-12-18T06:14:22;32.13;;;16.40;;
61978;SDS011;47938;48.176;16.414;2022-12-18T06:16:50;28.90;;;16.08;;
61978;SDS011;47938;48.176;16.414;2022-12-18T06:19:16;27.00;;;15.15;;
61978;SDS011;47938;48.176;16.414;2022-12-18T06:21:41;27.40;;;14.45;;
61978;SDS011;47938;48.176;16.414;2022-12-18T06:24:07;30.00;;;16.15;;
61978;SDS011;47938;48.176;16.414;2022-12-18T06:26:33;29.23;;;15.00;;
61978;SDS011;47938;48.176;16.414;2022-12-18T06:28:58;26.70;;;14.43;;
61978;SDS011;47938;48.176;16.414;2022-12-18T06:31:24;26.58;;;15.35;;
61978;SDS011;47938;48.176;16.414;2022-12-18T06:33:50;25.85;;;15.48;;
61978;SDS011;47938;48.176;16.414;2022-12-18T06:36:16;33.28;;;16.45;;
61978;SDS011;47938;48.176;16.414;2022-12-18T06:38:42;28.30;;;14.80;;
61978;SDS011;47938;48.176;16.414;2022-12-18T06:41:09;27.88;;;15.13;;
61978;SDS011;47938;48.176;16.414;2022-12-18T06:43:37;29.15;;;15.40;;
61978;SDS011;47938;48.176;16.414;2022-12-18T06:46:03;27.88;;;16.08;;
61978;SDS011;47938;48.176;16.414;2022-12-18T06:48:30;37.17;;;15.77;;
61978;SDS011;47938;48.176;16.414;2022-12-18T06:50:55;31.50;;;16.08;;
61978;SDS011;47938;48.176;16.414;2022-12-18T06:53:21;25.35;;;14.90;;
61978;SDS011;47938;48.176;16.414;2022-12-18T06:55:47;32.90;;;16.63;;
61978;SDS011;47938;48.176;16.414;2022-12-18T06:58:13;27.33;;;15.55;;
61978;SDS011;47938;48.176;16.414;2022-12-18T07:00:38;35.80;;;16.48;;
61978;SDS011;47938;48.176;16.414;2022-12-18T07:03:04;29.42;;;15.63;;
61978;SDS011;47938;48.176;16.414;2022-12-18T07:05:29;27.60;;;15.27;;
61978;SDS011;47938;48.176;16.414;2022-12-18T07:07:55;27.83;;;15.48;;
61978;SDS011;47938;48.176;16.414;2022-12-18T07:10:21;26.58;;;15.32;;
61978;SDS011;47938;48.176;16.414;2022-12-18T07:12:46;25.55;;;14.82;;
61978;SDS011;47938;48.176;16.414;2022-12-18T07:15:12;26.67;;;15.73;;
61978;SDS011;47938;48.176;16.414;2022-12-18T07:17:38;28.88;;;14.95;;
61978;SDS011;47938;48.176;16.414;2022-12-18T07:20:04;31.20;;;16.25;;
61978;SDS011;47938;48.176;16.414;2022-12-18T07:22:30;30.15;;;16.13;;
61978;SDS011;47938;48.176;16.414;2022-12-18T07:24:56;26.00;;;15.68;;
61978;SDS011;47938;48.176;16.414;2022-12-18T07:27:21;31.83;;;15.18;;
61978;SDS011;47938;48.176;16.414;2022-12-18T07:29:47;27.90;;;16.20;;
61978;SDS011;47938;48.176;16.414;2022-12-18T07:32:13;31.33;;;14.57;;
61978;SDS011;47938;48.176;16.414;2022-12-18T07:34:39;24.77;;;14.95;;
61978;SDS011;47938;48.176;16.414;2022-12-18T07:37:04;28.95;;;15.80;;
61978;SDS011;47938;48.176;16.414;2022-12-18T07:39:30;28.60;;;14.65;;
61978;SDS011;47938;48.176;16.414;2022-12-18T07:41:56;30.30;;;15.65;;
61978;SDS011;47938;48.176;16.414;2022-12-18T07:44:21;27.10;;;14.98;;
61978;SDS011;47938;48.176;16.414;2022-12-18T07:46:47;24.40;;;14.45;;
61978;SDS011;47938;48.176;16.414;2022-12-18T07:49:12;24.48;;;14.15;;
61978;SDS011;47938;48.176;16.414;2022-12-18T07:51:38;25.00;;;14.48;;
61978;SDS011;47938;48.176;16.414;2022-12-18T07:54:04;24.90;;;13.98;;
61978;SDS011;47938;48.176;16.414;2022-12-18T07:56:29;23.83;;;14.40;;
61978;SDS011;47938;48.176;16.414;2022-12-18T07:58:55;29.42;;;16.08;;
61978;SDS011;47938;48.176;16.414;2022-12-18T08:01:21;28.88;;;15.57;;
61978;SDS011;47938;48.176;16.414;2022-12-18T08:03:47;27.52;;;15.32;;
61978;SDS011;47938;48.176;16.414;2022-12-18T08:06:12;28.55;;;15.07;;
61978;SDS011;47938;48.176;16.414;2022-12-18T08:08:38;30.10;;;16.10;;
61978;SDS011;47938;48.176;16.414;2022-12-18T08:11:03;29.70;;;14.68;;
61978;SDS011;47938;48.176;16.414;2022-12-18T08:13:29;28.70;;;16.52;;
61978;SDS011;47938;48.176;16.414;2022-12-18T08:15:55;26.02;;;15.48;;
61978;SDS011;47938;48.176;16.414;2022-12-18T08:18:22;27.02;;;16.05;;
61978;SDS011;47938;48.176;16.414;2022-12-18T08:20:48;29.02;;;14.27;;
61978;SDS011;47938;48.176;16.414;2022-12-18T08:23:13;27.15;;;14.82;;
61978;SDS011;47938;48.176;16.414;2022-12-18T08:25:39;28.52;;;15.07;;
61978;SDS011;47938;48.176;16.414;2022-12-18T08:28:04;28.70;;;15.70;;
61978;SDS011;47938;48.176;16.414;2022-12-18T08:30:30;27.20;;;15.02;;
61978;SDS011;47938;48.176;16.414;2022-12-18T08:32:56;26.35;;;15.35;;
61978;SDS011;47938;48.176;16.414;2022-12-18T08:35:21;28.98;;;16.35;;
61978;SDS011;47938;48.176;16.414;2022-12-18T08:37:47;30.50;;;16.30;;
61978;SDS011;47938;48.176;16.414;2022-12-18T08:40:12;32.17;;;16.15;;
61978;SDS011;47938;48.176;16.414;2022-12-18T08:42:38;27.27;;;15.93;;
61978;SDS011;47938;48.176;16.414;2022-12-18T08:45:04;28.45;;;16.33;;
61978;SDS011;47938;48.176;16.414;2022-12-18T08:47:31;27.05;;;15.65;;
61978;SDS011;47938;48.176;16.414;2022-12-18T08:49:56;29.70;;;16.60;;
61978;SDS011;47938;48.176;16.414;2022-12-18T08:52:22;32.83;;;16.65;;
61978;SDS011;47938;48.176;16.414;2022-12-18T08:54:47;33.97;;;16.33;;
61978;SDS011;47938;48.176;16.414;2022-12-18T08:57:13;31.20;;;16.77;;
61978;SDS011;47938;48.176;16.414;2022-12-18T08:59:39;33.38;;;18.15;;
61978;SDS011;47938;48.176;16.414;2022-12-18T09:02:04;35.90;;;17.25;;
61978;SDS011;47938;48.176;16.414;2022-12-18T09:04:30;33.30;;;18.70;;
61978;SDS011;47938;48.176;16.414;2022-12-18T09:06:55;40.53;;;20.50;;
61978;SDS011;47938;48.176;16.414;2022-12-18T09:09:21;35.15;;;20.95;;
61978;SDS011;47938;48.176;16.414;2022-12-18T09:11:47;31.33;;;16.70;;
61978;SDS011;47938;48.176;16.414;2022-12-18T09:14:12;34.38;;;18.77;;
61978;SDS011;47938;48.176;16.414;2022-12-18T09:16:38;35.17;;;18.98;;
61978;SDS011;47938;48.176;16.414;2022-12-18T09:19:04;32.72;;;18.73;;
61978;SDS011;47938;48.176;16.414;2022-12-18T09:21:31;34.47;;;20.20;;
61978;SDS011;47938;48.176;16.414;2022-12-18T09:23:58;34.85;;;19.73;;
61978;SDS011;47938;48.176;16.414;2022-12-18T09:26:25;32.88;;;20.02;;
61978;SDS011;47938;48.176;16.414;2022-12-18T09:28:51;32.10;;;18.80;;
61978;SDS011;47938;48.176;16.414;2022-12-18T09:31:18;33.75;;;18.40;;
61978;SDS011;47938;48.176;16.414;2022-12-18T09:33:45;32.33;;;18.40;;
61978;SDS011;47938;48.176;16.414;2022-12-18T09:36:12;33.63;;;17.42;;
61978;SDS011;47938;48.176;16.414;2022-12-18T09:38:39;29.92;;;16.42;;
61978;SDS011;47938;48.176;16.414;2022-12-18T09:41:13;35.10;;;16.88;;
61978;SDS011;47938;48.176;16.414;2022-12-18T09:44:00;31.98;;;17.23;;
61978;SDS011;47938;48.176;16.414;2022-12-18T09:46:31;35.17;;;16.77;;
61978;SDS011;47938;48.176;16.414;2022-12-18T09:49:02;32.78;;;16.73;;
61978;SDS011;47938;48.176;16.414;2022-12-18T09:51:46;27.35;;;14.98;;
61978;SDS011;47938;48.176;16.414;2022-12-18T09:54:17;28.98;;;15.73;;
61978;SDS011;47938;48.176;16.414;2022-12-18T09:56:46;32.17;;;16.25;;
61978;SDS011;47938;48.176;16.414;2022-12-18T09:59:20;28.63;;;15.13;;
61978;SDS011;47938;48.176;16.414;2022-12-18T10:01:51;31.77;;;16.52;;
61978;SDS011;47938;48.176;16.414;2022-12-18T10:04:17;31.30;;;15.75;;
61978;SDS011;47938;48.176;16.414;2022-12-18T10:15:14;27.77;;;14.13;;
61978;SDS011;47938;48.176;16.414;2022-12-18T10:17:58;31.88;;;15.73;;
61978;SDS011;47938;48.176;16.414;2022-12-18T10:20:54;27.73;;;15.73;;
61978;SDS011;47938;48.176;16.414;2022-12-18T10:23:36;34.17;;;17.50;;
61978;SDS011;47938;48.176;16.414;2022-12-18T10:26:11;30.05;;;15.98;;
61978;SDS011;47938;48.176;16.414;2022-12-18T10:28:37;34.25;;;16.77;;
61978;SDS011;47938;48.176;16.414;2022-12-18T10:31:05;31.85;;;15.27;;
61978;SDS011;47938;48.176;16.414;2022-12-18T10:33:45;32.45;;;16.48;;
61978;SDS011;47938;48.176;16.414;2022-12-18T10:36:10;32.22;;;17.45;;
61978;SDS011;47938;48.176;16.414;2022-12-18T10:38:36;28.33;;;16.30;;
61978;SDS011;47938;48.176;16.414;2022-12-18T10:41:06;26.20;;;14.93;;
61978;SDS011;47938;48.176;16.414;2022-12-18T10:46:36;31.98;;;16.52;;
61978;SDS011;47938;48.176;16.414;2022-12-18T10:49:02;30.50;;;16.42;;
61978;SDS011;47938;48.176;16.414;2022-12-18T10:51:35;33.85;;;16.60;;
61978;SDS011;47938;48.176;16.414;2022-12-18T10:54:05;35.67;;;16.90;;
61978;SDS011;47938;48.176;16.414;2022-12-18T10:56:39;38.33;;;18.35;;
61978;SDS011;47938;48.176;16.414;2022-12-18T10:59:06;30.25;;;16.60;;
61978;SDS011;47938;48.176;16.414;2022-12-18T11:01:53;33.53;;;17.17;;
61978;SDS011;47938;48.176;16.414;2022-12-18T11:04:23;31.73;;;17.35;;
61978;SDS011;47938;48.176;16.414;2022-12-18T11:09:27;33.70;;;17.30;;
61978;SDS011;47938;48.176;16.414;2022-12-18T11:12:01;36.42;;;16.02;;
61978;SDS011;47938;48.176;16.414;2022-12-18T11:17:33;30.52;;;17.35;;
61978;SDS011;47938;48.176;16.414;2022-12-18T11:20:01;36.17;;;17.67;;
61978;SDS011;47938;48.176;16.414;2022-12-18T11:22:54;28.88;;;15.75;;
61978;SDS011;47938;48.176;16.414;2022-12-18T11:25:31;32.20;;;16.58;;
61978;SDS011;47938;48.176;16.414;2022-12-18T11:27:59;32.03;;;15.80;;
61978;SDS011;47938;48.176;16.414;2022-12-18T11:30:33;33.50;;;16.85;;
61978;SDS011;47938;48.176;16.414;2022-12-18T11:36:00;36.70;;;16.98;;
61978;SDS011;47938;48.176;16.414;2022-12-18T11:43:41;34.80;;;16.73;;
61978;SDS011;47938;48.176;16.414;2022-12-18T11:46:16;33.25;;;17.13;;
61978;SDS011;47938;48.176;16.414;2022-12-18T11:48:49;37.45;;;17.38;;
61978;SDS011;47938;48.176;16.414;2022-12-18T11:51:29;34.90;;;17.67;;
61978;SDS011;47938;48.176;16.414;2022-12-18T11:54:00;21.58;;;11.48;;
61978;SDS011;47938;48.176;16.414;2022-12-18T11:56:36;34.63;;;17.35;;
61978;SDS011;47938;48.176;16.414;2022-12-18T11:59:14;32.47;;;17.17;;
61978;SDS011;47938;48.176;16.414;2022-12-18T12:05:04;31.85;;;16.48;;
61978;SDS011;47938;48.176;16.414;2022-12-18T12:15:13;33.70;;;17.67;;
61978;SDS011;47938;48.176;16.414;2022-12-18T12:18:03;35.70;;;17.65;;
61978;SDS011;47938;48.176;16.414;2022-12-18T12:39:32;33.00;;;17.00;;
61978;SDS011;47938;48.176;16.414;2022-12-18T12:42:06;32.97;;;16.15;;
61978;SDS011;47938;48.176;16.414;2022-12-18T12:44:55;30.33;;;14.25;;
61978;SDS011;47938;48.176;16.414;2022-12-18T12:47:25;35.63;;;16.88;;
61978;SDS011;47938;48.176;16.414;2022-12-18T12:49:55;35.30;;;17.65;;
61978;SDS011;47938;48.176;16.414;2022-12-18T12:52:36;33.63;;;17.92;;
61978;SDS011;47938;48.176;16.414;2022-12-18T12:55:07;34.25;;;17.63;;
61978;SDS011;47938;48.176;16.414;2022-12-18T12:57:45;33.63;;;16.65;;
61978;SDS011;47938;48.176;16.414;2022-12-18T13:00:31;37.55;;;18.83;;
61978;SDS011;47938;48.176;16.414;2022-12-18T13:08:28;34.35;;;19.02;;
61978;SDS011;47938;48.176;16.414;2022-12-18T13:10:55;37.88;;;19.85;;
61978;SDS011;47938;48.176;16.414;2022-12-18T13:13:25;40.13;;;19.88;;
61978;SDS011;47938;48.176;16.414;2022-12-18T13:16:10;30.85;;;18.08;;
61978;SDS011;47938;48.176;16.414;2022-12-18T13:18:36;36.40;;;18.00;;
61978;SDS011;47938;48.176;16.414;2022-12-18T13:21:03;35.42;;;20.10;;
61978;SDS011;47938;48.176;16.414;2022-12-18T13:23:40;37.60;;;20.33;;
61978;SDS011;47938;48.176;16.414;2022-12-18T13:31:58;40.65;;;18.58;;
61978;SDS011;47938;48.176;16.414;2022-12-18T13:36:51;35.75;;;18.98;;
61978;SDS011;47938;48.176;16.414;2022-12-18T13:41:47;35.22;;;18.50;;
61978;SDS011;47938;48.176;16.414;2022-12-18T13:46:59;36.10;;;18.63;;
61978;SDS011;47938;48.176;16.414;2022-12-18T13:49:40;39.78;;;19.80;;
61978;SDS011;47938;48.176;16.414;2022-12-18T13:52:24;37.50;;;17.90;;
61978;SDS011;47938;48.176;16.414;2022-12-18T13:54:55;35.80;;;18.23;;
61978;SDS011;47938;48.176;16.414;2022-12-18T13:57:26;40.80;;;19.30;;
61978;SDS011;47938;48.176;16.414;2022-12-18T13:59:54;36.22;;;19.77;;
61978;SDS011;47938;48.176;16.414;2022-12-18T14:02:20;40.42;;;19.10;;
61978;SDS011;47938;48.176;16.414;2022-12-18T14:04:48;42.63;;;21.00;;
61978;SDS011;47938;48.176;16.414;2022-12-18T14:07:17;44.80;;;22.25;;
61978;SDS011;47938;48.176;16.414;2022-12-18T14:09:46;36.78;;;18.70;;
61978;SDS011;47938;48.176;16.414;2022-12-18T14:12:38;41.83;;;22.05;;
61978;SDS011;47938;48.176;16.414;2022-12-18T14:15:03;38.03;;;18.45;;
61978;SDS011;47938;48.176;16.414;2022-12-18T14:17:31;48.38;;;22.23;;
61978;SDS011;47938;48.176;16.414;2022-12-18T14:19:57;44.78;;;22.30;;
61978;SDS011;47938;48.176;16.414;2022-12-18T14:22:24;49.90;;;25.25;;
61978;SDS011;47938;48.176;16.414;2022-12-18T14:25:05;50.25;;;22.27;;
61978;SDS011;47938;48.176;16.414;2022-12-18T14:27:51;51.58;;;22.35;;
61978;SDS011;47938;48.176;16.414;2022-12-18T14:30:34;41.65;;;21.25;;
61978;SDS011;47938;48.176;16.414;2022-12-18T14:33:06;54.83;;;23.17;;
61978;SDS011;47938;48.176;16.414;2022-12-18T14:35:36;43.50;;;22.38;;
61978;SDS011;47938;48.176;16.414;2022-12-18T14:40:47;54.00;;;23.33;;
61978;SDS011;47938;48.176;16.414;2022-12-18T14:43:20;52.80;;;23.92;;
61978;SDS011;47938;48.176;16.414;2022-12-18T14:45:46;50.13;;;24.30;;
61978;SDS011;47938;48.176;16.414;2022-12-18T14:54:03;49.20;;;22.90;;
61978;SDS011;47938;48.176;16.414;2022-12-18T14:56:43;50.33;;;22.23;;
61978;SDS011;47938;48.176;16.414;2022-12-18T14:59:44;37.80;;;20.55;;
61978;SDS011;47938;48.176;16.414;2022-12-18T15:05:02;58.72;;;23.55;;
61978;SDS011;47938;48.176;16.414;2022-12-18T15:07:42;50.33;;;21.02;;
61978;SDS011;47938;48.176;16.414;2022-12-18T15:10:11;50.90;;;22.67;;
61978;SDS011;47938;48.176;16.414;2022-12-18T15:12:46;43.42;;;21.42;;
61978;SDS011;47938;48.176;16.414;2022-12-18T15:18:00;31.88;;;15.30;;
61978;SDS011;47938;48.176;16.414;2022-12-18T15:20:31;52.70;;;24.77;;
61978;SDS011;47938;48.176;16.414;2022-12-18T15:22:58;38.78;;;20.40;;
61978;SDS011;47938;48.176;16.414;2022-12-18T15:25:29;40.97;;;18.00;;
61978;SDS011;47938;48.176;16.414;2022-12-18T15:28:01;44.55;;;22.40;;
61978;SDS011;47938;48.176;16.414;2022-12-18T15:30:27;48.70;;;22.02;;
61978;SDS011;47938;48.176;16.414;2022-12-18T15:33:17;47.15;;;22.48;;
61978;SDS011;47938;48.176;16.414;2022-12-18T15:35:55;48.95;;;21.23;;
61978;SDS011;47938;48.176;16.414;2022-12-18T15:38:25;44.33;;;21.30;;
61978;SDS011;47938;48.176;16.414;2022-12-18T15:40:52;48.58;;;21.63;;
61978;SDS011;47938;48.176;16.414;2022-12-18T15:43:19;45.08;;;21.65;;
61978;SDS011;47938;48.176;16.414;2022-12-18T15:45:50;47.53;;;22.08;;
61978;SDS011;47938;48.176;16.414;2022-12-18T15:48:20;38.40;;;21.40;;
61978;SDS011;47938;48.176;16.414;2022-12-18T15:50:47;41.88;;;19.30;;
61978;SDS011;47938;48.176;16.414;2022-12-18T15:53:18;44.88;;;21.85;;
61978;SDS011;47938;48.176;16.414;2022-12-18T15:55:44;48.63;;;22.90;;
61978;SDS011;47938;48.176;16.414;2022-12-18T15:58:10;40.17;;;21.73;;
61978;SDS011;47938;48.176;16.414;2022-12-18T16:00:38;47.92;;;22.40;;
61978;SDS011;47938;48.176;16.414;2022-12-18T16:03:05;41.67;;;20.67;;
61978;SDS011;47938;48.176;16.414;2022-12-18T16:05:31;49.30;;;21.35;;
61978;SDS011;47938;48.176;16.414;2022-12-18T16:07:57;35.38;;;18.67;;
61978;SDS011;47938;48.176;16.414;2022-12-18T16:10:24;46.20;;;20.40;;
61978;SDS011;47938;48.176;16.414;2022-12-18T16:12:51;39.83;;;20.27;;
61978;SDS011;47938;48.176;16.414;2022-12-18T16:15:17;39.50;;;19.70;;